Time;durP1;ratioP1;P1;durP2;ratioP2;P2;SDS_P1;SDS_P2;PMS_P1;PMS_P2;Temp;Humidity;BMP_temperature;BMP_pressure;BME280_temperature;BME280_humidity;BME280_pressure;Samples;Min_cycle;Max_cycle;Signal;HPM_P1;HPM_P2
2023/03/10 00:01:39;;;;;;;;;;;;;;;8.83;63.46;96020.50;5071699;28;19970;-57
2023/03/10 00:04:07;;;;;;;;;;;;;;;8.82;62.61;96019.72;5082175;28;19928;-57
2023/03/10 00:06:37;;;;;;;;;;;;;;;8.89;62.54;96022.63;5076346;28;20354;-58
2023/03/10 00:09:05;;;;;;;;;;;;;;;8.94;61.89;96010.75;5084291;28;20382;-57
2023/03/10 00:11:32;;;;;;;;;;;;;;;8.88;62.16;96018.34;5080703;28;19929;-61
2023/03/10 00:14:00;;;;;;;;;;;;;;;8.89;61.61;96013.69;5083329;28;19928;-58
2023/03/10 00:16:29;;;;;;;;;;;;;;;8.91;62.86;96019.56;5081702;28;19935;-60
2023/03/10 00:18:57;;;;;;;;;;;;;;;9.01;61.95;96016.38;5082602;28;19931;-58
2023/03/10 00:21:26;;;;;;;;;;;;;;;8.88;61.98;96015.63;5079692;28;20305;-58
2023/03/10 00:23:55;;;;;;;;;;;;;;;8.91;62.08;96017.66;5080167;28;19929;-57
2023/03/10 00:26:24;;;;;;;;;;;;;;;8.91;61.85;96017.66;5081469;28;19924;-57
2023/03/10 00:28:52;;;;;;;;;;;;;;;8.84;62.34;96014.75;5079846;28;19931;-57
2023/03/10 00:31:21;;;;;;;;;;;;;;;8.79;61.99;96012.31;5076738;28;19924;-57
2023/03/10 00:33:49;;;;;;;;;;;;;;;8.77;62.95;96008.34;5078982;28;19928;-58
2023/03/10 00:36:19;;;;;;;;;;;;;;;8.81;62.92;96015.44;5083708;28;20017;-62
2023/03/10 00:38:48;;;;;;;;;;;;;;;8.80;62.56;96015.78;5079561;28;19932;-58
2023/03/10 00:41:18;;;;;;;;;;;;;;;8.78;62.49;96010.69;5085710;28;19931;-58
2023/03/10 00:43:46;;;;;;;;;;;;;;;8.75;62.80;96011.41;5088818;28;19928;-58
2023/03/10 00:46:13;;;;;;;;;;;;;;;8.72;62.97;96006.69;5079483;28;19924;-57
2023/03/10 00:48:41;;;;;;;;;;;;;;;8.77;63.05;96006.44;5099303;28;20347;-58
2023/03/10 00:51:10;;;;;;;;;;;;;;;8.78;63.51;96009.91;5075142;28;19932;-57
2023/03/10 00:53:40;;;;;;;;;;;;;;;8.82;62.86;96005.41;5082658;28;19924;-57
2023/03/10 00:56:08;;;;;;;;;;;;;;;8.73;63.15;96005.53;5081259;28;19990;-58
2023/03/10 00:58:38;;;;;;;;;;;;;;;8.82;62.76;96000.75;5085458;28;19977;-57
2023/03/10 01:01:10;;;;;;;;;;;;;;;8.83;62.46;95998.84;5081889;28;19948;-57
2023/03/10 01:03:38;;;;;;;;;;;;;;;8.83;62.39;95991.50;5089308;28;19924;-58
2023/03/10 01:06:06;;;;;;;;;;;;;;;8.77;62.70;95982.06;5088463;28;19977;-58
2023/03/10 01:08:33;;;;;;;;;;;;;;;8.77;63.30;95979.34;5086309;28;19929;-58
2023/03/10 01:11:01;;;;;;;;;;;;;;;8.72;62.81;95989.66;5078684;28;19928;-59
2023/03/10 01:13:29;;;;;;;;;;;;;;;8.82;62.12;95973.69;5082437;28;19932;-57
2023/03/10 01:16:00;;;;;;;;;;;;;;;8.99;61.94;95972.56;5088682;28;20415;-59
2023/03/10 01:18:28;;;;;;;;;;;;;;;9.05;61.25;95965.75;5079180;28;19935;-57
2023/03/10 01:20:56;;;;;;;;;;;;;;;8.94;61.88;95953.88;5088043;28;19924;-57
2023/03/10 01:23:25;;;;;;;;;;;;;;;8.91;62.03;95951.88;5090223;28;19928;-58
2023/03/10 01:25:53;;;;;;;;;;;;;;;8.90;61.71;95948.38;5085741;28;19959;-58
2023/03/10 01:28:21;;;;;;;;;;;;;;;8.91;62.04;95943.75;5086023;28;19924;-58
2023/03/10 01:30:51;;;;;;;;;;;;;;;8.83;62.29;95948.19;5079143;28;20626;-59
2023/03/10 01:33:20;;;;;;;;;;;;;;;8.83;62.36;95936.56;5088345;28;19932;-58
2023/03/10 01:35:48;;;;;;;;;;;;;;;8.79;62.86;95930.25;5090554;28;20434;-59
2023/03/10 01:38:17;;;;;;;;;;;;;;;8.83;62.26;95928.44;5084604;28;19956;-60
2023/03/10 01:40:47;;;;;;;;;;;;;;;8.81;62.71;95923.38;5075589;28;19928;-58
2023/03/10 01:43:24;;;;;;;;;;;;;;;8.79;62.98;95911.31;5097613;28;19940;-61
2023/03/10 01:46:12;;;;;;;;;;;;;;;8.78;62.67;95907.03;5089446;28;19924;-60
2023/03/10 01:48:41;;;;;;;;;;;;;;;8.81;62.38;95903.66;5089351;28;20316;-60
2023/03/10 01:51:09;;;;;;;;;;;;;;;8.78;62.76;95897.00;5082779;28;20377;-59
2023/03/10 01:53:37;;;;;;;;;;;;;;;8.82;62.68;95887.03;5080639;28;19995;-58
2023/03/10 01:56:06;;;;;;;;;;;;;;;8.74;63.33;95884.53;5084208;28;20015;-58
2023/03/10 01:58:35;;;;;;;;;;;;;;;8.79;64.15;95876.13;5077818;28;19928;-58
2023/03/10 02:01:04;;;;;;;;;;;;;;;8.73;64.36;95872.09;5071063;28;19924;-58
2023/03/10 02:03:33;;;;;;;;;;;;;;;8.82;64.77;95856.47;5084734;28;19932;-58
2023/03/10 02:06:02;;;;;;;;;;;;;;;8.75;64.20;95854.38;5100357;28;19931;-58
2023/03/10 02:08:31;;;;;;;;;;;;;;;8.78;64.54;95858.31;5078925;28;19925;-58
2023/03/10 02:10:59;;;;;;;;;;;;;;;8.75;64.94;95859.03;5079588;28;19924;-58
2023/03/10 02:13:30;;;;;;;;;;;;;;;8.73;65.18;95855.84;5083457;28;20309;-58
2023/03/10 02:15:57;;;;;;;;;;;;;;;8.64;64.78;95853.34;5073708;28;19924;-59
2023/03/10 02:18:25;;;;;;;;;;;;;;;8.62;65.13;95845.53;5056031;28;20011;-60
2023/03/10 02:20:55;;;;;;;;;;;;;;;8.66;65.28;95845.63;5062696;28;21877;-58
2023/03/10 02:23:25;;;;;;;;;;;;;;;8.62;65.14;95828.53;5039317;28;19978;-59
2023/03/10 02:25:54;;;;;;;;;;;;;;;8.68;64.24;95829.81;5060943;28;19956;-60
2023/03/10 02:28:23;;;;;;;;;;;;;;;8.65;64.17;95835.97;5053516;28;19929;-58
2023/03/10 02:30:51;;;;;;;;;;;;;;;8.68;64.15;95820.91;5043885;28;19929;-58
2023/03/10 02:33:20;;;;;;;;;;;;;;;8.72;64.91;95819.88;5047575;28;20489;-58
2023/03/10 02:35:48;;;;;;;;;;;;;;;8.67;64.77;95820.13;5048437;28;19928;-58
2023/03/10 02:38:20;;;;;;;;;;;;;;;8.69;63.70;95806.28;5057572;28;19928;-58
2023/03/10 02:40:49;;;;;;;;;;;;;;;8.62;64.06;95796.03;5036315;28;19924;-59
2023/03/10 02:43:26;;;;;;;;;;;;;;;8.66;64.85;95797.69;5046200;28;20443;-59
2023/03/10 02:46:02;;;;;;;;;;;;;;;8.66;64.05;95780.69;5054509;28;19935;-59
2023/03/10 02:48:31;;;;;;;;;;;;;;;8.58;63.65;95774.31;5066737;28;19947;-58
2023/03/10 02:51:00;;;;;;;;;;;;;;;8.71;63.46;95790.47;5053287;28;19974;-58
2023/03/10 02:53:28;;;;;;;;;;;;;;;8.78;63.26;95794.09;5075240;28;20427;-58
2023/03/10 02:55:56;;;;;;;;;;;;;;;8.85;62.47;95778.03;5070387;28;20289;-59
2023/03/10 02:58:27;;;;;;;;;;;;;;;8.77;63.11;95776.28;5082052;28;19932;-58
2023/03/10 03:00:55;;;;;;;;;;;;;;;8.79;64.22;95779.47;5069150;28;19951;-58
2023/03/10 03:03:23;;;;;;;;;;;;;;;8.81;65.29;95774.47;5084528;28;19951;-59
2023/03/10 03:05:52;;;;;;;;;;;;;;;8.70;65.18;95773.44;5084230;28;19924;-58
2023/03/10 03:08:20;;;;;;;;;;;;;;;8.76;66.69;95769.31;5082668;28;19924;-59
2023/03/10 03:10:48;;;;;;;;;;;;;;;8.67;67.37;95760.59;5074763;28;19931;-58
2023/03/10 03:13:18;;;;;;;;;;;;;;;8.65;68.04;95765.59;5080752;28;19924;-58
2023/03/10 03:15:48;;;;;;;;;;;;;;;8.53;69.04;95763.75;5075821;28;19924;-59
2023/03/10 03:18:16;;;;;;;;;;;;;;;8.54;68.15;95769.94;5079245;28;19947;-58
2023/03/10 03:20:44;;;;;;;;;;;;;;;8.54;68.13;95768.03;5084521;28;19931;-58
2023/03/10 03:23:13;;;;;;;;;;;;;;;8.55;67.85;95764.19;5083974;28;19959;-58
2023/03/10 03:25:41;;;;;;;;;;;;;;;8.54;67.97;95772.66;5087889;28;19985;-65
2023/03/10 03:28:12;;;;;;;;;;;;;;;8.60;67.87;95766.63;5082198;28;19999;-58
2023/03/10 03:30:41;;;;;;;;;;;;;;;8.51;67.78;95778.75;5077090;28;19925;-59
2023/03/10 03:33:10;;;;;;;;;;;;;;;8.42;68.28;95775.47;5075704;28;19925;-58
2023/03/10 03:35:40;;;;;;;;;;;;;;;8.45;68.39;95774.75;5073724;28;19951;-60
2023/03/10 03:38:08;;;;;;;;;;;;;;;8.48;68.99;95772.13;5080837;28;19928;-58
2023/03/10 03:40:37;;;;;;;;;;;;;;;8.58;68.73;95778.94;5083950;28;19943;-58
2023/03/10 03:43:05;;;;;;;;;;;;;;;8.55;68.81;95774.22;5069759;28;19935;-58
2023/03/10 03:45:34;;;;;;;;;;;;;;;8.50;68.65;95777.97;5090104;28;19946;-60
2023/03/10 03:48:02;;;;;;;;;;;;;;;8.47;69.22;95775.97;5084585;28;19938;-58
2023/03/10 03:50:34;;;;;;;;;;;;;;;8.44;69.97;95778.59;5087107;28;20008;-58
2023/03/10 03:53:08;;;;;;;;;;;;;;;8.46;69.87;95777.09;5060743;28;20384;-59
2023/03/10 03:55:36;;;;;;;;;;;;;;;8.33;70.27;95776.38;5073703;28;20315;-58
2023/03/10 03:58:04;;;;;;;;;;;;;;;8.25;70.79;95768.41;5083361;28;19949;-60
2023/03/10 04:00:33;;;;;;;;;;;;;;;8.18;70.83;95755.50;5062598;28;20281;-64
2023/03/10 04:03:05;;;;;;;;;;;;;;;8.24;70.63;95764.94;5081643;28;20319;-58
2023/03/10 04:05:34;;;;;;;;;;;;;;;8.29;70.59;95778.19;5088401;28;19941;-60
2023/03/10 04:08:02;;;;;;;;;;;;;;;8.32;70.63;95780.22;5074485;28;19939;-62
2023/03/10 04:10:31;;;;;;;;;;;;;;;8.19;70.78;95767.91;5073141;28;20591;-58
2023/03/10 04:13:02;;;;;;;;;;;;;;;8.17;71.15;95767.47;5088731;28;19935;-59
2023/03/10 04:15:30;;;;;;;;;;;;;;;8.12;70.90;95752.28;5075872;28;20482;-58
2023/03/10 04:17:59;;;;;;;;;;;;;;;8.03;71.16;95762.47;5084394;28;19993;-58
2023/03/10 04:20:28;;;;;;;;;;;;;;;8.06;71.37;95752.88;5088044;28;20034;-58
2023/03/10 04:22:57;;;;;;;;;;;;;;;8.13;71.41;95756.56;5090723;28;20033;-58
2023/03/10 04:25:30;;;;;;;;;;;;;;;8.20;70.86;95757.84;5094722;28;19951;-58
2023/03/10 04:27:59;;;;;;;;;;;;;;;8.04;71.64;95765.94;5082825;28;19962;-59
2023/03/10 04:30:28;;;;;;;;;;;;;;;8.13;71.37;95763.88;5081142;28;19997;-58
2023/03/10 04:32:59;;;;;;;;;;;;;;;8.12;71.46;95760.38;5086901;28;19939;-59
2023/03/10 04:35:30;;;;;;;;;;;;;;;8.21;71.04;95757.53;5082531;28;20052;-63
2023/03/10 04:38:02;;;;;;;;;;;;;;;8.22;70.72;95766.44;5088935;28;19949;-58
2023/03/10 04:40:31;;;;;;;;;;;;;;;8.19;70.36;95762.47;5089365;28;19974;-58
2023/03/10 04:42:59;;;;;;;;;;;;;;;8.19;70.74;95757.06;5082142;28;20801;-59
2023/03/10 04:45:29;;;;;;;;;;;;;;;8.37;70.11;95763.75;5079797;28;19950;-58
2023/03/10 04:47:57;;;;;;;;;;;;;;;8.23;70.69;95762.59;5084768;28;19939;-58
2023/03/10 04:50:25;;;;;;;;;;;;;;;8.27;71.04;95760.75;5088497;28;19955;-62
2023/03/10 04:52:54;;;;;;;;;;;;;;;8.31;70.79;95762.44;5086782;28;19954;-59
2023/03/10 04:55:27;;;;;;;;;;;;;;;8.35;70.85;95757.88;5086932;28;19980;-60
2023/03/10 04:57:55;;;;;;;;;;;;;;;8.30;71.66;95760.84;5087181;28;19931;-59
2023/03/10 05:00:23;;;;;;;;;;;;;;;8.37;71.27;95754.88;5081873;28;20384;-58
2023/03/10 05:02:52;;;;;;;;;;;;;;;8.38;71.25;95754.50;5075522;28;20788;-58
2023/03/10 05:05:20;;;;;;;;;;;;;;;8.40;71.41;95746.81;5072780;28;19935;-59
2023/03/10 05:07:49;;;;;;;;;;;;;;;8.44;71.42;95746.13;5070166;28;19939;-58
2023/03/10 05:10:18;;;;;;;;;;;;;;;8.48;71.30;95752.41;5069298;28;19951;-58
2023/03/10 05:12:48;;;;;;;;;;;;;;;8.50;71.14;95742.00;5090245;28;19935;-58
2023/03/10 05:15:16;;;;;;;;;;;;;;;8.66;71.11;95745.50;5084523;28;19988;-59
2023/03/10 05:17:44;;;;;;;;;;;;;;;8.65;70.88;95744.72;5065779;28;19946;-58
2023/03/10 05:20:13;;;;;;;;;;;;;;;8.58;71.36;95754.59;5088697;28;19939;-58
2023/03/10 05:22:42;;;;;;;;;;;;;;;8.73;71.38;95756.47;5092497;28;19935;-59
2023/03/10 05:25:10;;;;;;;;;;;;;;;8.61;71.13;95745.75;5067298;28;19995;-60
2023/03/10 05:27:40;;;;;;;;;;;;;;;8.49;71.75;95746.66;5076826;28;19933;-59
2023/03/10 05:30:11;;;;;;;;;;;;;;;8.47;72.04;95748.94;5072694;28;19939;-58
2023/03/10 05:32:39;;;;;;;;;;;;;;;8.50;71.68;95744.72;5104551;28;19950;-58
2023/03/10 05:35:09;;;;;;;;;;;;;;;8.41;72.36;95747.59;5085181;28;19938;-59
2023/03/10 05:37:39;;;;;;;;;;;;;;;8.56;72.16;95748.72;5082807;28;20472;-59
2023/03/10 05:40:09;;;;;;;;;;;;;;;8.52;72.85;95745.16;5076600;28;20375;-58
2023/03/10 05:42:37;;;;;;;;;;;;;;;8.54;72.52;95746.38;5103644;28;19973;-59
2023/03/10 05:45:05;;;;;;;;;;;;;;;8.46;72.52;95744.63;5074756;28;19936;-64
2023/03/10 05:47:35;;;;;;;;;;;;;;;8.39;73.19;95739.84;5078232;28;19968;-60
2023/03/10 05:50:03;;;;;;;;;;;;;;;8.53;73.20;95733.22;5078497;28;20022;-59
2023/03/10 05:52:36;;;;;;;;;;;;;;;8.53;73.31;95735.91;5081683;28;19961;-62
2023/03/10 05:55:04;;;;;;;;;;;;;;;8.51;73.15;95735.47;5096172;28;19939;-58
2023/03/10 05:57:32;;;;;;;;;;;;;;;8.54;73.43;95730.13;5082187;28;20042;-59
2023/03/10 06:00:00;;;;;;;;;;;;;;;8.61;73.13;95719.47;5090633;28;19961;-58
2023/03/10 06:02:30;;;;;;;;;;;;;;;8.44;73.77;95719.06;5099473;28;19985;-58
2023/03/10 06:04:59;;;;;;;;;;;;;;;8.44;74.31;95710.94;5099870;28;19977;-59
2023/03/10 06:07:27;;;;;;;;;;;;;;;8.50;73.77;95701.44;5108144;28;19941;-58
2023/03/10 06:09:54;;;;;;;;;;;;;;;8.60;73.64;95695.47;5098602;28;19958;-58
2023/03/10 06:12:22;;;;;;;;;;;;;;;8.66;73.22;95707.59;5096562;28;19950;-56
2023/03/10 06:14:50;;;;;;;;;;;;;;;8.67;73.47;95714.56;5104631;28;19938;-58
2023/03/10 06:17:18;;;;;;;;;;;;;;;8.87;72.62;95715.41;5089023;28;19990;-57
2023/03/10 06:19:46;;;;;;;;;;;;;;;8.80;72.81;95721.47;5104921;28;19949;-58
2023/03/10 06:22:15;;;;;;;;;;;;;;;8.94;72.30;95712.84;5097146;28;19946;-56
2023/03/10 06:24:44;;;;;;;;;;;;;;;9.08;71.93;95712.38;5104728;28;19928;-59
2023/03/10 06:27:12;;;;;;;;;;;;;;;9.12;71.48;95697.00;5100336;28;19955;-57
2023/03/10 06:29:40;;;;;;;;;;;;;;;9.11;71.81;95703.56;5104806;28;19934;-58
2023/03/10 06:32:07;;;;;;;;;;;;;;;9.19;71.42;95699.84;5078783;28;19932;-57
2023/03/10 06:34:37;;;;;;;;;;;;;;;9.31;70.76;95713.25;5098289;28;19971;-58
2023/03/10 06:37:06;;;;;;;;;;;;;;;9.33;70.73;95721.03;5102575;28;19924;-57
2023/03/10 06:39:37;;;;;;;;;;;;;;;9.27;71.28;95717.81;5108674;28;19965;-59
2023/03/10 06:42:05;;;;;;;;;;;;;;;9.33;71.14;95721.81;5107114;28;19938;-59
2023/03/10 06:44:33;;;;;;;;;;;;;;;9.31;71.50;95717.88;5105014;28;19972;-57
2023/03/10 06:47:03;;;;;;;;;;;;;;;9.32;70.97;95714.84;5098264;28;19931;-57
2023/03/10 06:49:32;;;;;;;;;;;;;;;9.28;71.26;95716.69;5096928;28;19930;-58
2023/03/10 06:52:00;;;;;;;;;;;;;;;9.38;70.81;95709.91;5096472;28;19973;-56
2023/03/10 06:54:31;;;;;;;;;;;;;;;9.48;70.31;95708.53;5103658;28;19924;-56
2023/03/10 06:57:01;;;;;;;;;;;;;;;9.45;70.40;95708.13;5100651;28;20434;-57
2023/03/10 06:59:30;;;;;;;;;;;;;;;9.37;70.86;95705.59;5104000;28;19970;-56
2023/03/10 07:01:58;;;;;;;;;;;;;;;9.38;70.98;95699.84;5098592;28;19946;-56
2023/03/10 07:04:28;;;;;;;;;;;;;;;9.39;70.95;95698.69;5100129;28;19924;-56
2023/03/10 07:06:56;;;;;;;;;;;;;;;9.48;70.63;95700.41;5097836;28;19932;-56
2023/03/10 07:09:26;;;;;;;;;;;;;;;9.57;70.41;95709.09;5096486;28;20350;-56
2023/03/10 07:11:54;;;;;;;;;;;;;;;9.55;70.09;95714.09;5100919;28;19963;-56
2023/03/10 07:14:24;;;;;;;;;;;;;;;9.55;70.33;95711.41;5099602;28;19942;-56
2023/03/10 07:16:52;;;;;;;;;;;;;;;9.81;69.75;95708.78;5074319;28;19940;-60
2023/03/10 07:19:20;;;;;;;;;;;;;;;9.66;70.08;95718.59;5086070;28;19924;-57
2023/03/10 07:21:48;;;;;;;;;;;;;;;9.89;69.41;95715.91;5099731;28;19970;-60
2023/03/10 07:24:16;;;;;;;;;;;;;;;9.90;69.14;95717.47;5105396;28;20000;-56
2023/03/10 07:26:44;;;;;;;;;;;;;;;10.05;68.88;95715.00;5103995;28;19924;-56
2023/03/10 07:29:12;;;;;;;;;;;;;;;10.16;68.59;95707.84;5101035;28;19924;-57
2023/03/10 07:31:41;;;;;;;;;;;;;;;10.11;68.57;95703.50;5093136;28;19924;-56
2023/03/10 07:34:09;;;;;;;;;;;;;;;10.20;68.54;95709.47;5103823;28;20011;-56
2023/03/10 07:36:37;;;;;;;;;;;;;;;10.07;68.38;95702.66;5098113;28;19924;-56
2023/03/10 07:39:05;;;;;;;;;;;;;;;10.10;68.43;95699.22;5086671;28;20334;-56
2023/03/10 07:41:33;;;;;;;;;;;;;;;10.07;68.58;95699.19;5097369;28;19924;-61
2023/03/10 07:44:00;;;;;;;;;;;;;;;10.04;68.94;95705.31;5092379;28;19966;-58
2023/03/10 07:46:28;;;;;;;;;;;;;;;10.08;68.97;95700.75;5092105;28;19930;-57
2023/03/10 07:49:02;;;;;;;;;;;;;;;10.19;68.83;95693.56;5089874;28;20407;-57
2023/03/10 07:51:31;;;;;;;;;;;;;;;10.29;67.89;95698.41;5102279;28;19924;-56
2023/03/10 07:53:58;;;;;;;;;;;;;;;10.38;67.75;95692.72;5106435;28;19954;-57
2023/03/10 07:56:26;;;;;;;;;;;;;;;10.46;67.74;95683.56;5099544;28;20427;-57
2023/03/10 07:58:54;;;;;;;;;;;;;;;10.60;67.09;95686.50;5102894;28;20419;-56
2023/03/10 08:01:22;;;;;;;;;;;;;;;10.72;66.88;95689.00;5074188;28;19950;-57
2023/03/10 08:03:50;;;;;;;;;;;;;;;10.66;66.28;95698.59;5099704;28;19931;-58
2023/03/10 08:06:21;;;;;;;;;;;;;;;10.69;66.73;95694.34;5107491;28;19969;-59
2023/03/10 08:08:49;;;;;;;;;;;;;;;10.87;65.30;95695.41;5110071;28;19924;-58
2023/03/10 08:11:18;;;;;;;;;;;;;;;10.80;65.49;95694.50;5116448;28;20006;-57
2023/03/10 08:13:46;;;;;;;;;;;;;;;10.90;65.03;95691.16;5103129;28;20414;-57
2023/03/10 08:16:15;;;;;;;;;;;;;;;10.83;65.19;95694.56;5099622;28;19958;-57
2023/03/10 08:18:43;;;;;;;;;;;;;;;10.72;65.89;95697.13;5104707;28;19938;-57
2023/03/10 08:21:10;;;;;;;;;;;;;;;10.79;66.06;95701.88;5110652;28;19952;-57
2023/03/10 08:23:40;;;;;;;;;;;;;;;10.84;65.93;95700.78;5103181;28;19931;-59
2023/03/10 08:26:10;;;;;;;;;;;;;;;10.93;66.12;95696.66;5102846;28;19924;-61
2023/03/10 08:28:38;;;;;;;;;;;;;;;11.01;65.38;95698.31;5114065;28;19976;-60
2023/03/10 08:31:08;;;;;;;;;;;;;;;11.00;65.73;95688.59;5085709;28;19928;-57
2023/03/10 08:33:36;;;;;;;;;;;;;;;10.95;66.30;95693.56;5102912;28;19930;-60
2023/03/10 08:36:06;;;;;;;;;;;;;;;10.84;66.35;95689.91;5109244;28;19924;-61
2023/03/10 08:38:34;;;;;;;;;;;;;;;11.02;66.05;95699.09;5111325;28;19924;-58
2023/03/10 08:41:14;;;;;;;;;;;;;;;10.99;66.10;95697.91;5103519;28;19932;-57
2023/03/10 08:43:42;;;;;;;;;;;;;;;10.98;66.56;95693.63;5112317;28;19962;-57
2023/03/10 08:46:10;;;;;;;;;;;;;;;11.09;65.35;95693.75;5106918;28;19928;-56
2023/03/10 08:48:38;;;;;;;;;;;;;;;11.15;65.06;95686.06;5104729;28;20392;-56
2023/03/10 08:51:11;;;;;;;;;;;;;;;11.10;64.87;95687.16;5098212;28;20336;-57
2023/03/10 08:53:45;;;;;;;;;;;;;;;11.22;64.36;95686.16;5093891;28;19924;-57
2023/03/10 08:56:15;;;;;;;;;;;;;;;11.24;64.42;95700.94;5106787;28;19939;-57
2023/03/10 08:58:42;;;;;;;;;;;;;;;11.29;64.10;95691.66;5096172;28;19931;-56
2023/03/10 09:01:10;;;;;;;;;;;;;;;11.24;65.47;95700.94;5088319;28;19924;-56
2023/03/10 09:03:39;;;;;;;;;;;;;;;11.16;65.48;95702.00;5112599;28;19931;-56
2023/03/10 09:06:08;;;;;;;;;;;;;;;11.09;66.15;95695.69;5107966;28;19979;-56
2023/03/10 09:08:35;;;;;;;;;;;;;;;11.00;67.47;95701.41;5082422;28;19937;-57
2023/03/10 09:11:03;;;;;;;;;;;;;;;10.98;68.02;95699.06;5096209;28;19927;-56
2023/03/10 09:13:33;;;;;;;;;;;;;;;11.04;68.43;95702.22;5101349;28;20385;-56
2023/03/10 09:16:01;;;;;;;;;;;;;;;11.11;68.56;95701.53;5105485;28;19978;-56
2023/03/10 09:18:29;;;;;;;;;;;;;;;10.97;69.36;95697.50;5105684;28;19924;-57
2023/03/10 09:20:57;;;;;;;;;;;;;;;11.22;68.64;95702.47;5104156;28;19924;-57
2023/03/10 09:23:25;;;;;;;;;;;;;;;11.28;68.09;95690.09;5112890;28;20269;-58
2023/03/10 09:25:52;;;;;;;;;;;;;;;11.42;68.07;95690.28;5109455;28;20505;-57
2023/03/10 09:28:21;;;;;;;;;;;;;;;11.57;67.79;95687.75;5102999;28;19924;-66
2023/03/10 09:30:52;;;;;;;;;;;;;;;11.55;66.86;95683.44;5090764;28;19928;-56
2023/03/10 09:33:21;;;;;;;;;;;;;;;11.84;66.00;95683.00;5109617;28;19959;-57
2023/03/10 09:35:50;;;;;;;;;;;;;;;11.98;64.98;95677.69;5104609;28;20361;-56
2023/03/10 09:38:33;;;;;;;;;;;;;;;11.99;65.04;95674.59;5077627;28;20042;-63
2023/03/10 09:41:03;;;;;;;;;;;;;;;11.93;65.17;95673.38;5106894;28;19924;-64
2023/03/10 09:43:31;;;;;;;;;;;;;;;11.85;66.40;95668.25;5106827;28;19923;-56
2023/03/10 09:46:03;;;;;;;;;;;;;;;11.89;65.61;95669.06;5103911;28;19955;-56
2023/03/10 09:48:34;;;;;;;;;;;;;;;11.83;65.55;95663.19;5109282;28;20629;-57
2023/03/10 09:51:08;;;;;;;;;;;;;;;12.03;64.97;95656.34;5099466;28;19959;-57
2023/03/10 09:53:40;;;;;;;;;;;;;;;12.47;65.03;95654.78;5104238;28;19967;-56
2023/03/10 09:56:14;;;;;;;;;;;;;;;12.78;62.90;95647.97;5083889;28;19935;-57
2023/03/10 09:58:43;;;;;;;;;;;;;;;12.74;60.44;95647.16;5105547;28;19930;-57
2023/03/10 10:01:15;;;;;;;;;;;;;;;12.72;60.83;95647.53;5094565;28;19934;-56
2023/03/10 10:03:43;;;;;;;;;;;;;;;12.71;60.36;95648.69;5098521;28;19928;-56
2023/03/10 10:06:58;;;;;;;;;;;;;;;12.62;60.72;95642.78;5096805;28;19939;-56
2023/03/10 10:09:27;;;;;;;;;;;;;;;12.72;60.05;95633.91;5096696;28;19970;-59
2023/03/10 10:11:56;;;;;;;;;;;;;;;12.69;60.36;95637.41;5098045;28;19924;-56
2023/03/10 10:15:00;;;;;;;;;;;;;;;12.57;61.07;95643.19;5088833;28;20607;-57
2023/03/10 10:28:22;;;;;;;;;;;;;;;11.31;67.61;95673.06;5031421;28;20325;-57
2023/03/10 10:30:50;;;;;;;;;;;;;;;11.10;68.05;95691.81;5022718;28;19960;-57
2023/03/10 10:33:21;;;;;;;;;;;;;;;10.86;69.17;95680.25;5090320;28;19923;-57
2023/03/10 10:39:36;;;;;;;;;;;;;;;10.38;70.48;95682.63;5035721;28;20475;-57
2023/03/10 10:49:08;;;;;;;;;;;;;;;10.09;70.66;95707.72;5024171;28;19944;-57
2023/03/10 10:51:38;;;;;;;;;;;;;;;9.89;71.19;95712.41;5096533;28;20018;-56
2023/03/10 10:54:19;;;;;;;;;;;;;;;9.90;71.30;95722.09;5103624;28;19958;-57
2023/03/10 10:56:53;;;;;;;;;;;;;;;9.85;70.75;95717.75;5105600;28;19946;-56
2023/03/10 10:59:22;;;;;;;;;;;;;;;9.82;70.60;95721.19;5096877;28;20002;-57
2023/03/10 11:01:53;;;;;;;;;;;;;;;9.87;71.57;95707.34;5099643;28;19924;-57
2023/03/10 11:04:21;;;;;;;;;;;;;;;10.17;72.02;95712.94;5097044;28;19938;-57
2023/03/10 11:06:49;;;;;;;;;;;;;;;10.25;71.42;95700.28;5101402;28;19924;-57
2023/03/10 11:09:18;;;;;;;;;;;;;;;10.55;70.64;95691.44;5100732;28;19936;-56
2023/03/10 11:11:48;;;;;;;;;;;;;;;11.03;69.49;95706.09;5090705;28;20441;-56
2023/03/10 11:14:36;;;;;;;;;;;;;;;11.10;66.77;95705.41;5102023;28;19958;-56
2023/03/10 11:17:07;;;;;;;;;;;;;;;11.13;66.51;95708.19;5092422;28;20035;-57
2023/03/10 11:19:39;;;;;;;;;;;;;;;11.11;64.48;95706.97;5099323;28;19962;-57
2023/03/10 11:22:11;;;;;;;;;;;;;;;11.05;64.84;95703.00;5096989;28;19954;-57
2023/03/10 11:24:40;;;;;;;;;;;;;;;10.94;64.57;95694.72;5098926;28;19934;-56
2023/03/10 11:27:08;;;;;;;;;;;;;;;10.96;64.22;95701.34;5111292;28;19979;-57
2023/03/10 11:29:45;;;;;;;;;;;;;;;11.07;63.94;95695.28;5105964;28;19925;-56
2023/03/10 11:32:18;;;;;;;;;;;;;;;11.23;62.19;95698.59;5097213;28;19924;-59
2023/03/10 11:34:48;;;;;;;;;;;;;;;11.28;63.46;95693.59;5100644;28;19967;-57
2023/03/10 11:37:20;;;;;;;;;;;;;;;11.53;62.22;95684.97;5099596;28;19931;-58
2023/03/10 11:39:49;;;;;;;;;;;;;;;11.46;63.41;95680.25;5112532;28;19928;-56
2023/03/10 11:42:20;;;;;;;;;;;;;;;11.97;62.05;95676.13;5112777;28;19930;-57
2023/03/10 11:44:50;;;;;;;;;;;;;;;11.90;60.76;95678.78;5113537;28;20046;-57
2023/03/10 11:47:21;;;;;;;;;;;;;;;11.83;61.24;95676.78;5099254;28;19954;-64
2023/03/10 11:49:50;;;;;;;;;;;;;;;11.84;61.28;95666.69;5104911;28;19959;-60
2023/03/10 11:52:20;;;;;;;;;;;;;;;11.78;61.97;95674.38;5102731;28;19965;-63
2023/03/10 11:54:50;;;;;;;;;;;;;;;11.74;61.95;95674.31;5085891;28;19993;-57
2023/03/10 11:57:18;;;;;;;;;;;;;;;11.53;63.34;95669.44;5112613;28;19942;-59
2023/03/10 11:59:47;;;;;;;;;;;;;;;11.52;63.26;95662.44;5106742;28;19981;-61
2023/03/10 12:02:16;;;;;;;;;;;;;;;11.67;63.14;95657.16;5074898;28;19958;-57
2023/03/10 12:04:46;;;;;;;;;;;;;;;11.79;63.48;95656.88;5089287;28;19943;-59
2023/03/10 12:07:16;;;;;;;;;;;;;;;11.72;63.82;95654.88;5108810;28;19942;-57
2023/03/10 12:09:45;;;;;;;;;;;;;;;11.68;64.08;95647.84;5104235;28;19945;-57
2023/03/10 12:12:13;;;;;;;;;;;;;;;11.58;63.64;95640.34;5094967;28;20044;-60
2023/03/10 12:14:41;;;;;;;;;;;;;;;11.75;63.75;95643.25;5110113;28;19928;-58
2023/03/10 12:17:10;;;;;;;;;;;;;;;11.71;63.19;95647.06;5105946;28;19954;-57
2023/03/10 12:19:53;;;;;;;;;;;;;;;11.67;63.27;95644.34;5106581;28;20403;-57
2023/03/10 12:22:32;;;;;;;;;;;;;;;11.62;63.23;95643.91;5109099;28;20047;-57
2023/03/10 12:25:00;;;;;;;;;;;;;;;11.72;63.23;95637.78;5098898;28;19984;-57
2023/03/10 12:27:28;;;;;;;;;;;;;;;11.75;63.06;95637.03;5100346;28;19927;-57
2023/03/10 12:29:56;;;;;;;;;;;;;;;11.86;63.68;95642.59;5104060;28;19944;-58
2023/03/10 12:32:39;;;;;;;;;;;;;;;11.92;62.58;95633.72;5105771;28;20016;-58
2023/03/10 12:35:22;;;;;;;;;;;;;;;11.92;63.26;95632.94;5112267;28;19953;-58
2023/03/10 12:37:51;;;;;;;;;;;;;;;11.85;62.84;95622.00;5104342;28;20388;-59
2023/03/10 12:40:49;;;;;;;;;;;;;;;11.89;63.17;95623.59;5112704;28;19976;-58
2023/03/10 12:43:37;;;;;;;;;;;;;;;12.07;61.92;95621.78;5028136;28;21465;-58
2023/03/10 12:46:05;;;;;;;;;;;;;;;12.08;61.45;95628.00;5090296;28;20313;-58
2023/03/10 12:48:33;;;;;;;;;;;;;;;11.91;62.27;95617.75;5103369;28;19941;-59
2023/03/10 12:51:01;;;;;;;;;;;;;;;11.95;62.85;95627.53;5100172;28;19949;-59
2023/03/10 12:53:31;;;;;;;;;;;;;;;11.69;62.99;95633.84;5105680;28;19938;-59
2023/03/10 12:56:05;;;;;;;;;;;;;;;11.62;63.31;95628.34;5107498;28;19954;-59
2023/03/10 12:58:33;;;;;;;;;;;;;;;11.53;63.57;95611.56;5111289;28;19954;-62
2023/03/10 13:01:02;;;;;;;;;;;;;;;11.46;63.22;95609.56;5104279;28;19976;-60
2023/03/10 13:03:31;;;;;;;;;;;;;;;11.52;63.88;95610.78;5094778;28;20374;-58
2023/03/10 13:06:04;;;;;;;;;;;;;;;11.34;63.03;95604.34;5102472;28;20414;-57
2023/03/10 13:08:44;;;;;;;;;;;;;;;11.33;63.72;95612.88;5085880;28;19932;-58
2023/03/10 13:11:30;;;;;;;;;;;;;;;11.34;63.43;95607.06;5115407;28;20030;-58
2023/03/10 13:13:59;;;;;;;;;;;;;;;11.41;63.24;95609.88;5105461;28;19934;-58
2023/03/10 13:16:27;;;;;;;;;;;;;;;11.43;62.32;95610.28;5100519;28;20410;-58
2023/03/10 13:18:55;;;;;;;;;;;;;;;11.70;61.88;95607.44;5106210;28;19998;-59
2023/03/10 13:21:24;;;;;;;;;;;;;;;11.92;61.44;95608.44;5092858;28;19942;-58
2023/03/10 13:23:53;;;;;;;;;;;;;;;11.86;60.97;95599.84;5108673;28;20218;-58
2023/03/10 13:26:23;;;;;;;;;;;;;;;12.19;60.92;95606.31;5101134;28;19934;-60
2023/03/10 13:28:51;;;;;;;;;;;;;;;12.17;60.58;95593.09;5087231;28;20550;-57